createdAt,value
2023-07-01T00:00:26.768Z,15.29
2023-07-01T00:01:31.151Z,15.29
2023-07-01T00:02:35.661Z,15.27
2023-07-01T00:03:39.941Z,15.27
2023-07-01T00:04:44.418Z,15.29
2023-07-01T00:05:48.681Z,15.29
2023-07-01T00:06:53.208Z,15.31
2023-07-01T00:07:57.630Z,15.28
2023-07-01T00:09:02.008Z,15.27
2023-07-01T00:10:06.415Z,15.24
2023-07-01T00:11:10.811Z,15.22
2023-07-01T00:12:15.189Z,15.21
2023-07-01T00:13:19.516Z,15.19
2023-07-01T00:14:24.012Z,15.18
2023-07-01T00:15:28.426Z,15.16
2023-07-01T00:16:32.846Z,15.16
2023-07-01T00:17:37.250Z,15.17
2023-07-01T00:18:41.726Z,15.15
2023-07-01T00:19:46.104Z,15.13
2023-07-01T00:20:50.541Z,15.11
2023-07-01T00:21:54.918Z,15.10
2023-07-01T00:22:59.202Z,15.10
2023-07-01T00:24:03.644Z,15.11
2023-07-01T00:25:08.254Z,15.12
2023-07-01T00:26:12.672Z,15.14
2023-07-01T00:27:16.981Z,15.15
2023-07-01T00:28:21.333Z,15.16
2023-07-01T00:29:25.768Z,15.15
2023-07-01T00:30:30.156Z,15.15
2023-07-01T00:31:34.664Z,15.16
2023-07-01T00:32:38.952Z,15.16
2023-07-01T00:33:43.370Z,15.16
2023-07-01T00:34:47.713Z,15.16
2023-07-01T00:35:52.107Z,15.15
2023-07-01T00:36:56.515Z,15.15
2023-07-01T00:38:00.893Z,15.15
2023-07-01T00:39:05.432Z,15.14
2023-07-01T00:40:09.629Z,15.14
2023-07-01T00:41:14.065Z,15.13
2023-07-01T00:42:18.375Z,15.13
2023-07-01T00:43:22.839Z,15.13
2023-07-01T00:44:27.312Z,15.13
2023-07-01T00:45:31.682Z,15.14
2023-07-01T00:46:36.183Z,15.12
2023-07-01T00:47:40.387Z,15.12
2023-07-01T00:48:44.809Z,15.12
2023-07-01T00:49:49.076Z,15.10
2023-07-01T00:50:53.460Z,15.09
2023-07-01T00:51:57.827Z,15.09
2023-07-01T00:53:02.200Z,15.09
2023-07-01T00:54:06.591Z,15.09
2023-07-01T00:55:10.936Z,15.08
2023-07-01T00:56:15.297Z,15.08
2023-07-01T00:57:19.689Z,15.07
2023-07-01T00:58:24.047Z,15.08
2023-07-01T00:59:28.377Z,15.09
2023-07-01T01:00:32.826Z,15.08
2023-07-01T01:01:37.353Z,15.08
2023-07-01T01:02:41.685Z,15.10
2023-07-01T01:03:46.014Z,15.09
2023-07-01T01:04:50.383Z,15.10
2023-07-01T01:05:54.705Z,15.09
2023-07-01T01:07:13.349Z,15.07
2023-07-01T01:08:16.345Z,15.08
2023-07-01T01:09:20.633Z,15.10
2023-07-01T01:10:25.100Z,15.12
2023-07-01T01:11:29.531Z,15.12
2023-07-01T01:12:33.838Z,15.14
2023-07-01T01:13:38.318Z,15.12
2023-07-01T01:14:42.705Z,15.12
2023-07-01T01:15:47.052Z,15.10
2023-07-01T01:16:51.463Z,15.13
2023-07-01T01:17:55.916Z,15.14
2023-07-01T01:19:00.195Z,15.14
2023-07-01T01:20:04.541Z,15.16
2023-07-01T01:21:08.894Z,15.20
2023-07-01T01:22:13.324Z,15.20
2023-07-01T01:23:17.685Z,15.17
2023-07-01T01:24:22.078Z,15.14
2023-07-01T01:25:29.470Z,15.13
2023-07-01T01:26:32.885Z,15.14
2023-07-01T01:27:37.363Z,15.15
2023-07-01T01:28:41.700Z,15.14
2023-07-01T01:29:46.088Z,15.14
2023-07-01T01:30:50.446Z,15.14
2023-07-01T01:31:54.782Z,15.15
2023-07-01T01:32:59.188Z,15.18
2023-07-01T01:34:03.528Z,15.21
2023-07-01T01:35:07.874Z,15.18
2023-07-01T01:36:12.288Z,15.16
2023-07-01T01:37:16.607Z,15.15
2023-07-01T01:38:21.005Z,15.16
2023-07-01T01:39:25.344Z,15.15
2023-07-01T01:40:29.670Z,15.16
2023-07-01T01:41:34.126Z,15.18
2023-07-01T01:42:38.440Z,15.19
2023-07-01T01:43:42.800Z,15.16
2023-07-01T01:44:47.369Z,15.16
2023-07-01T01:45:51.719Z,15.17
2023-07-01T01:46:56.068Z,15.18
2023-07-01T01:48:03.518Z,15.19
2023-07-01T01:49:06.886Z,15.19
2023-07-01T01:50:17.352Z,15.21
2023-07-01T01:51:20.357Z,15.21
2023-07-01T01:52:38.722Z,15.22
2023-07-01T01:53:41.912Z,15.22
2023-07-01T01:54:46.197Z,15.23
2023-07-01T01:55:50.563Z,15.25
2023-07-01T01:56:54.854Z,15.25
2023-07-01T01:57:59.198Z,15.24
2023-07-01T01:59:03.629Z,15.24
2023-07-01T02:00:08.047Z,15.24
2023-07-01T02:01:12.445Z,15.24
2023-07-01T02:02:16.745Z,15.23
2023-07-01T02:03:21.276Z,15.24
2023-07-01T02:04:25.730Z,15.28
2023-07-01T02:05:35.968Z,15.29
2023-07-01T02:06:38.890Z,15.28
2023-07-01T02:07:43.328Z,15.30
2023-07-01T02:08:47.651Z,15.34
2023-07-01T02:09:51.986Z,15.40
2023-07-01T02:10:56.398Z,15.42
2023-07-01T02:12:00.786Z,15.40
2023-07-01T02:14:32.211Z,15.39
2023-07-01T02:15:36.471Z,15.41
2023-07-01T02:16:40.840Z,15.38
2023-07-01T02:17:45.179Z,15.35
2023-07-01T02:18:49.500Z,15.35
2023-07-01T02:19:53.885Z,15.34
2023-07-01T02:20:58.261Z,15.32
2023-07-01T02:22:02.612Z,15.31
2023-07-01T02:23:06.968Z,15.26
2023-07-01T02:24:11.303Z,15.27
2023-07-01T02:25:15.672Z,15.27
2023-07-01T02:26:19.952Z,15.28
2023-07-01T02:27:24.423Z,15.25
2023-07-01T02:28:28.722Z,15.26
2023-07-01T02:29:33.141Z,15.27
2023-07-01T02:30:37.655Z,15.25
2023-07-01T02:31:42.044Z,15.23
2023-07-01T02:32:46.364Z,15.25
2023-07-01T02:33:50.866Z,15.26
2023-07-01T02:35:09.299Z,15.24
2023-07-01T02:36:12.180Z,15.25
2023-07-01T02:37:16.495Z,15.25
2023-07-01T02:38:20.856Z,15.25
2023-07-01T02:39:25.194Z,15.26
2023-07-01T02:40:29.440Z,15.27
2023-07-01T02:41:33.946Z,15.28
2023-07-01T02:42:38.369Z,15.30
2023-07-01T02:43:42.740Z,15.30
2023-07-01T02:44:47.049Z,15.30
2023-07-01T02:45:51.500Z,15.32
2023-07-01T02:46:55.880Z,15.35
2023-07-01T02:48:00.265Z,15.36
2023-07-01T02:49:04.529Z,15.35
2023-07-01T02:50:08.901Z,15.36
2023-07-01T02:51:13.205Z,15.36
2023-07-01T02:52:17.719Z,15.37
2023-07-01T02:53:22.026Z,15.37
2023-07-01T02:54:26.382Z,15.36
2023-07-01T02:55:30.810Z,15.37
2023-07-01T02:56:49.242Z,15.36
2023-07-01T02:57:52.156Z,15.38
2023-07-01T02:58:59.465Z,15.38
2023-07-01T03:00:03.020Z,15.39
2023-07-01T03:01:07.287Z,15.40
2023-07-01T03:02:11.738Z,15.40
2023-07-01T03:03:16.058Z,15.41
2023-07-01T03:04:21.369Z,15.41
2023-07-01T03:05:24.733Z,15.42
2023-07-01T03:06:29.075Z,15.42
2023-07-01T03:07:33.416Z,15.43
2023-07-01T03:08:37.915Z,15.46
2023-07-01T03:09:42.216Z,15.49
2023-07-01T03:10:46.961Z,15.50
2023-07-01T03:11:50.972Z,15.48
2023-07-01T03:12:55.320Z,15.48
2023-07-01T03:13:59.693Z,15.48
2023-07-01T03:15:04.057Z,15.47
2023-07-01T03:16:08.611Z,15.47
2023-07-01T03:17:12.891Z,15.46
2023-07-01T03:18:17.234Z,15.47
2023-07-01T03:19:21.660Z,15.48
2023-07-01T03:20:25.964Z,15.48
2023-07-01T03:21:30.452Z,15.48
2023-07-01T03:22:34.812Z,15.49
2023-07-01T03:23:39.131Z,15.50
2023-07-01T03:24:43.444Z,15.51
2023-07-01T03:25:47.822Z,15.50
2023-07-01T03:26:52.281Z,15.54
2023-07-01T03:27:56.632Z,15.54
2023-07-01T03:29:01.012Z,15.54
2023-07-01T03:30:05.309Z,15.55
2023-07-01T03:31:09.822Z,15.57
2023-07-01T03:32:14.260Z,15.57
2023-07-01T03:33:18.675Z,15.58
2023-07-01T03:34:23.024Z,15.58
2023-07-01T03:35:27.446Z,15.58
2023-07-01T03:36:31.802Z,15.60
2023-07-01T03:37:36.151Z,15.60
2023-07-01T03:38:40.559Z,15.62
2023-07-01T03:39:44.859Z,15.60
2023-07-01T03:40:49.634Z,15.62
2023-07-01T03:41:53.693Z,15.62
2023-07-01T03:42:58.089Z,15.63
2023-07-01T03:44:02.356Z,15.62
2023-07-01T03:45:06.814Z,15.62
2023-07-01T03:46:11.256Z,15.61
2023-07-01T03:47:15.692Z,15.62
2023-07-01T03:48:20.025Z,15.62
2023-07-01T03:49:24.318Z,15.63
2023-07-01T03:50:28.766Z,15.64
2023-07-01T03:51:33.059Z,15.65
2023-07-01T03:52:38.638Z,15.67
2023-07-01T03:53:41.783Z,15.68
2023-07-01T03:54:46.177Z,15.68
2023-07-01T03:55:50.488Z,15.69
2023-07-01T03:56:54.816Z,15.70
2023-07-01T03:57:59.247Z,15.72
2023-07-01T03:59:03.590Z,15.72
2023-07-01T04:00:07.931Z,15.74
2023-07-01T04:01:12.388Z,15.74
2023-07-01T04:02:16.722Z,15.75
2023-07-01T04:03:21.327Z,15.74
2023-07-01T04:04:25.461Z,15.76
2023-07-01T04:05:29.784Z,15.76
2023-07-01T04:06:34.125Z,15.76
2023-07-01T04:07:38.569Z,15.78
2023-07-01T04:08:42.905Z,15.77
2023-07-01T04:09:47.249Z,15.77
2023-07-01T04:10:51.618Z,15.76
2023-07-01T04:11:56.071Z,15.75
2023-07-01T04:13:00.378Z,15.75
2023-07-01T04:14:04.772Z,15.75
2023-07-01T04:15:09.080Z,15.75
2023-07-01T04:16:13.504Z,15.76
2023-07-01T04:17:17.919Z,15.76
2023-07-01T04:18:22.202Z,15.78
2023-07-01T04:19:40.666Z,15.77
2023-07-01T04:20:58.011Z,15.79
2023-07-01T04:22:01.170Z,15.81
2023-07-01T04:23:11.561Z,15.81
2023-07-01T04:24:14.630Z,15.83
2023-07-01T04:25:19.037Z,15.84
2023-07-01T04:26:23.392Z,15.85
2023-07-01T04:27:41.865Z,15.85
2023-07-01T04:28:45.268Z,15.86
2023-07-01T04:29:49.545Z,15.86
2023-07-01T04:30:54.042Z,15.85
2023-07-01T04:31:58.304Z,15.86
2023-07-01T04:33:02.767Z,15.85
2023-07-01T04:34:07.066Z,15.85
2023-07-01T04:35:11.388Z,15.86
2023-07-01T04:36:15.829Z,15.86
2023-07-01T04:37:20.225Z,15.86
2023-07-01T04:38:24.611Z,15.86
2023-07-01T04:39:29.119Z,15.87
2023-07-01T04:40:33.384Z,15.88
2023-07-01T04:41:37.760Z,15.88
2023-07-01T04:42:42.203Z,15.87
2023-07-01T04:43:46.613Z,15.87
2023-07-01T04:44:50.981Z,15.87
2023-07-01T04:45:55.273Z,15.88
2023-07-01T04:46:59.748Z,15.88
2023-07-01T04:48:07.019Z,15.87
2023-07-01T04:49:10.500Z,15.88
2023-07-01T04:50:15.072Z,15.90
2023-07-01T04:51:19.211Z,15.90
2023-07-01T04:52:23.531Z,15.90
2023-07-01T04:53:27.943Z,15.90
2023-07-01T04:54:32.314Z,15.91
2023-07-01T04:55:36.701Z,15.92
2023-07-01T04:56:41.187Z,15.93
2023-07-01T04:57:48.578Z,15.94
2023-07-01T04:59:06.012Z,15.95
2023-07-01T05:00:09.193Z,15.97
2023-07-01T05:01:13.484Z,15.98
2023-07-01T05:02:17.870Z,15.99
2023-07-01T05:03:22.364Z,16.01
2023-07-01T05:04:26.614Z,16.02
2023-07-01T05:05:31.075Z,16.02
2023-07-01T05:06:35.285Z,16.03
2023-07-01T05:07:39.827Z,16.03
2023-07-01T05:08:44.059Z,16.04
2023-07-01T05:09:49.504Z,16.06
2023-07-01T05:10:53.590Z,16.09
2023-07-01T05:11:57.834Z,16.10
2023-07-01T05:13:02.296Z,16.11
2023-07-01T05:14:06.621Z,16.10
2023-07-01T05:15:11.046Z,16.11
2023-07-01T05:16:15.376Z,16.13
2023-07-01T05:17:19.818Z,16.14
2023-07-01T05:18:24.185Z,16.15
2023-07-01T05:19:28.567Z,16.15
2023-07-01T05:20:32.895Z,16.16
2023-07-01T05:21:37.303Z,16.17
2023-07-01T05:22:41.761Z,16.17
2023-07-01T05:23:46.245Z,16.17
2023-07-01T05:24:50.642Z,16.17
2023-07-01T05:25:55.091Z,16.16
2023-07-01T05:26:59.503Z,16.15
2023-07-01T05:28:03.819Z,16.14
2023-07-01T05:29:08.276Z,16.11
2023-07-01T05:30:12.652Z,16.09
2023-07-01T05:31:17.077Z,16.07
2023-07-01T05:32:21.455Z,16.04
2023-07-01T05:33:28.750Z,16.01
2023-07-01T05:34:32.356Z,16.02
2023-07-01T05:35:36.718Z,16.02
2023-07-01T05:36:41.197Z,16.01
2023-07-01T05:37:45.571Z,16.01
2023-07-01T05:38:50.954Z,16.02
2023-07-01T05:39:54.356Z,16.04
2023-07-01T05:40:58.752Z,16.05
2023-07-01T05:42:03.180Z,16.04
2023-07-01T05:43:10.593Z,16.05
2023-07-01T05:44:28.193Z,16.06
2023-07-01T05:45:31.633Z,16.09
2023-07-01T05:46:36.156Z,16.12
2023-07-01T05:47:40.410Z,16.15
2023-07-01T05:48:44.823Z,16.17
2023-07-01T05:49:49.250Z,16.20
2023-07-01T05:50:53.660Z,16.20
2023-07-01T05:51:58.071Z,16.23
2023-07-01T05:53:02.490Z,16.24
2023-07-01T05:54:06.874Z,16.26
2023-07-01T05:55:11.295Z,16.30
2023-07-01T05:56:15.703Z,16.34
2023-07-01T05:57:20.048Z,16.35
2023-07-01T05:58:24.503Z,16.32
2023-07-01T05:59:28.931Z,16.30
2023-07-01T06:00:47.637Z,16.29
2023-07-01T06:01:50.875Z,16.31
2023-07-01T06:02:55.242Z,16.35
2023-07-01T06:03:59.554Z,16.39
2023-07-01T06:05:04.146Z,16.42
2023-07-01T06:06:08.353Z,16.46
2023-07-01T06:07:12.787Z,16.44
2023-07-01T06:08:17.225Z,16.44
2023-07-01T06:09:21.642Z,16.47
2023-07-01T06:10:31.962Z,16.48
2023-07-01T06:11:34.977Z,16.53
2023-07-01T06:12:39.525Z,16.56
2023-07-01T06:13:43.746Z,16.59
2023-07-01T06:14:48.211Z,16.59
2023-07-01T06:15:52.642Z,16.58
2023-07-01T06:16:57.076Z,16.57
2023-07-01T06:18:15.488Z,16.57
2023-07-01T06:19:18.808Z,16.52
2023-07-01T06:20:37.147Z,16.49
2023-07-01T06:21:40.554Z,16.52
2023-07-01T06:24:12.372Z,16.52
2023-07-01T06:25:16.757Z,16.56
2023-07-01T06:26:21.114Z,16.59
2023-07-01T06:27:25.490Z,16.56
2023-07-01T06:28:29.914Z,16.57
2023-07-01T06:29:34.282Z,16.59
2023-07-01T06:30:38.775Z,16.61
2023-07-01T06:31:43.286Z,16.62
2023-07-01T06:32:47.677Z,16.61
2023-07-01T06:33:51.957Z,16.62
2023-07-01T06:34:56.423Z,16.60
2023-07-01T06:36:01.824Z,16.62
2023-07-01T06:37:05.857Z,16.62
2023-07-01T06:38:10.200Z,16.66
2023-07-01T06:39:14.678Z,16.63
2023-07-01T06:40:19.111Z,16.57
2023-07-01T06:41:23.510Z,16.57
2023-07-01T06:42:27.934Z,16.54
2023-07-01T06:43:32.383Z,16.51
2023-07-01T06:44:36.792Z,16.52
2023-07-01T06:45:41.311Z,16.54
2023-07-01T06:46:45.596Z,16.58
2023-07-01T06:47:50.010Z,16.60
2023-07-01T06:48:54.442Z,16.54
2023-07-01T06:49:58.824Z,16.52
2023-07-01T06:51:03.277Z,16.53
2023-07-01T06:52:07.685Z,16.52
2023-07-01T06:53:12.212Z,16.52
2023-07-01T06:54:16.499Z,16.46
2023-07-01T06:55:20.942Z,16.47
2023-07-01T06:56:25.284Z,16.51
2023-07-01T06:57:29.734Z,16.51
2023-07-01T06:58:34.131Z,16.47
2023-07-01T06:59:52.586Z,16.46
2023-07-01T07:00:55.939Z,16.50
2023-07-01T07:02:00.337Z,16.53
2023-07-01T07:03:05.055Z,16.52
2023-07-01T07:04:09.308Z,16.50
2023-07-01T07:05:16.560Z,16.52
2023-07-01T07:06:20.057Z,16.51
2023-07-01T07:07:24.442Z,16.51
2023-07-01T07:08:28.816Z,16.53
2023-07-01T07:09:33.280Z,16.57
2023-07-01T07:10:37.680Z,16.61
2023-07-01T07:11:42.120Z,16.61
2023-07-01T07:12:46.523Z,16.64
2023-07-01T07:13:50.954Z,16.65
2023-07-01T07:14:55.364Z,16.64
2023-07-01T07:15:59.825Z,16.62
2023-07-01T07:17:04.198Z,16.65
2023-07-01T07:18:08.624Z,16.67
2023-07-01T07:19:12.994Z,16.66
2023-07-01T07:20:17.412Z,16.66
2023-07-01T07:21:21.792Z,16.69
2023-07-01T07:22:26.180Z,16.72
2023-07-01T07:23:30.659Z,16.71
2023-07-01T07:24:35.040Z,16.71
2023-07-01T07:25:42.500Z,16.71
2023-07-01T07:26:46.055Z,16.70
2023-07-01T07:27:50.535Z,16.67
2023-07-01T07:28:54.864Z,16.71
2023-07-01T07:29:59.327Z,16.61
2023-07-01T07:31:03.789Z,16.64
2023-07-01T07:32:08.089Z,16.68
2023-07-01T07:33:12.537Z,16.62
2023-07-01T07:34:16.937Z,16.62
2023-07-01T07:35:21.436Z,16.65
2023-07-01T07:36:25.857Z,16.68
2023-07-01T07:37:30.184Z,16.66
2023-07-01T07:38:34.627Z,16.71
2023-07-01T07:39:39.004Z,16.74
2023-07-01T07:40:43.504Z,16.77
2023-07-01T07:42:02.056Z,16.69
2023-07-01T07:43:05.397Z,16.69
2023-07-01T07:44:09.808Z,16.74
2023-07-01T07:45:14.248Z,16.70
2023-07-01T07:46:18.777Z,16.72
2023-07-01T07:47:23.058Z,16.74
2023-07-01T07:48:30.517Z,16.77
2023-07-01T07:49:34.052Z,16.79
2023-07-01T07:50:38.530Z,16.84
2023-07-01T07:51:43.021Z,16.88
2023-07-01T07:52:47.416Z,16.86
2023-07-01T07:53:51.833Z,16.93
2023-07-01T07:54:56.211Z,17.00
2023-07-01T07:56:00.673Z,17.08
2023-07-01T07:57:05.188Z,17.09
2023-07-01T07:58:09.592Z,17.11
2023-07-01T07:59:14.067Z,17.08
2023-07-01T08:00:18.409Z,17.03
2023-07-01T08:01:22.917Z,17.08
2023-07-01T08:02:27.342Z,17.11
2023-07-01T08:03:31.823Z,17.04
2023-07-01T08:04:36.287Z,17.05
2023-07-01T08:05:40.684Z,17.00
2023-07-01T08:06:45.181Z,16.91
2023-07-01T08:07:49.513Z,16.91
2023-07-01T08:08:53.914Z,17.00
2023-07-01T08:09:58.376Z,16.87
2023-07-01T08:11:02.736Z,16.85
2023-07-01T08:12:07.117Z,16.88
2023-07-01T08:13:11.528Z,17.03
2023-07-01T08:14:15.982Z,17.16
2023-07-01T08:15:20.412Z,17.21
2023-07-01T08:16:24.795Z,17.18
2023-07-01T08:17:29.388Z,17.13
2023-07-01T08:18:33.896Z,16.99
2023-07-01T08:19:38.145Z,16.96
2023-07-01T08:20:42.609Z,16.86
2023-07-01T08:21:47.008Z,16.77
2023-07-01T08:22:51.522Z,16.69
2023-07-01T08:23:55.895Z,16.63
2023-07-01T08:25:06.336Z,16.57
2023-07-01T08:26:09.386Z,16.56
2023-07-01T08:27:13.785Z,16.58
2023-07-01T08:28:18.109Z,16.59
2023-07-01T08:29:22.500Z,16.62
2023-07-01T08:30:40.903Z,16.61
2023-07-01T08:31:44.346Z,16.58
2023-07-01T08:32:48.830Z,16.58
2023-07-01T08:33:53.081Z,16.52
2023-07-01T08:34:57.539Z,16.53
2023-07-01T08:36:01.936Z,16.51
2023-07-01T08:37:06.314Z,16.53
2023-07-01T08:38:10.810Z,16.61
2023-07-01T08:39:15.224Z,16.66
2023-07-01T08:40:19.621Z,16.69
2023-07-01T08:41:24.114Z,16.77
2023-07-01T08:42:28.477Z,16.84
2023-07-01T08:43:33.014Z,16.93
2023-07-01T08:44:37.456Z,16.99
2023-07-01T08:45:41.919Z,17.00
2023-07-01T08:46:46.447Z,16.98
2023-07-01T08:47:50.772Z,16.98
2023-07-01T08:48:55.116Z,17.01
2023-07-01T08:50:00.552Z,17.05
2023-07-01T08:51:04.144Z,17.03
2023-07-01T08:52:08.563Z,16.93
2023-07-01T08:53:13.039Z,16.88
2023-07-01T08:54:17.439Z,16.90
2023-07-01T08:55:21.763Z,16.78
2023-07-01T08:56:26.171Z,16.74
2023-07-01T08:57:30.583Z,16.65
2023-07-01T08:58:35.054Z,16.56
2023-07-01T08:59:39.466Z,16.56
2023-07-01T09:00:43.829Z,16.43
2023-07-01T09:01:48.332Z,16.41
2023-07-01T09:02:52.831Z,16.48
2023-07-01T09:03:57.355Z,16.45
2023-07-01T09:05:01.776Z,16.51
2023-07-01T09:06:05.943Z,16.58
2023-07-01T09:07:10.369Z,16.67
2023-07-01T09:08:14.766Z,16.66
2023-07-01T09:09:19.266Z,16.63
2023-07-01T09:10:23.707Z,16.67
2023-07-01T09:11:28.255Z,16.66
2023-07-01T09:12:32.552Z,16.57
2023-07-01T09:13:36.982Z,16.50
2023-07-01T09:14:41.476Z,16.43
2023-07-01T09:15:46.390Z,16.36
2023-07-01T09:16:50.441Z,16.37
2023-07-01T09:17:54.952Z,16.48
2023-07-01T09:18:59.487Z,16.45
2023-07-01T09:20:06.806Z,16.50
2023-07-01T09:21:10.398Z,16.58
2023-07-01T09:22:14.743Z,16.58
2023-07-01T09:23:19.223Z,16.60
2023-07-01T09:24:23.664Z,16.64
2023-07-01T09:25:28.178Z,16.62
2023-07-01T09:26:32.576Z,16.58
2023-07-01T09:27:37.095Z,16.52
2023-07-01T09:28:41.560Z,16.53
2023-07-01T09:29:46.089Z,16.57
2023-07-01T09:31:04.522Z,16.64
2023-07-01T09:32:07.691Z,16.63
2023-07-01T09:33:12.120Z,16.61
2023-07-01T09:34:16.542Z,16.59
2023-07-01T09:35:34.978Z,16.52
2023-07-01T09:36:38.445Z,16.55
2023-07-01T09:37:42.805Z,16.53
2023-07-01T09:38:47.279Z,16.55
2023-07-01T09:40:05.696Z,16.56
2023-07-01T09:41:08.914Z,16.56
2023-07-01T09:42:13.366Z,16.53
2023-07-01T09:43:17.762Z,16.53
2023-07-01T09:44:22.200Z,16.52
2023-07-01T09:45:26.608Z,16.54
2023-07-01T09:46:31.104Z,16.43
2023-07-01T09:47:49.554Z,16.39
2023-07-01T09:48:52.669Z,16.43
2023-07-01T09:49:57.155Z,16.47
2023-07-01T09:51:01.595Z,16.49
2023-07-01T09:52:20.038Z,16.52
2023-07-01T09:53:23.324Z,16.43
2023-07-01T09:54:27.848Z,16.41
2023-07-01T09:55:32.227Z,16.39
2023-07-01T09:56:36.620Z,16.45
2023-07-01T09:57:41.065Z,16.48
2023-07-01T09:58:45.435Z,16.52
2023-07-01T09:59:49.907Z,16.53
2023-07-01T10:00:54.265Z,16.54
2023-07-01T10:02:12.850Z,16.56
2023-07-01T10:03:22.274Z,16.55
2023-07-01T10:04:25.292Z,16.57
2023-07-01T10:05:29.653Z,16.56
2023-07-01T10:06:34.089Z,16.62
2023-07-01T10:07:38.541Z,16.66
2023-07-01T10:08:43.003Z,16.66
2023-07-01T10:09:47.461Z,16.70
2023-07-01T10:10:51.829Z,16.63
2023-07-01T10:11:56.290Z,16.59
2023-07-01T10:13:00.830Z,16.61
2023-07-01T10:14:08.137Z,16.57
2023-07-01T10:15:12.957Z,16.51
2023-07-01T10:16:16.046Z,16.47
2023-07-01T10:17:20.727Z,16.46
2023-07-01T10:18:24.958Z,16.48
2023-07-01T10:19:29.375Z,16.55
2023-07-01T10:20:33.705Z,16.55
2023-07-01T10:21:38.104Z,16.50
2023-07-01T10:22:42.501Z,16.48
2023-07-01T10:23:46.953Z,16.46
2023-07-01T10:24:54.350Z,16.44
2023-07-01T10:25:58.008Z,16.46
2023-07-01T10:27:02.413Z,16.46
2023-07-01T10:28:06.723Z,16.49
2023-07-01T10:29:11.209Z,16.50
2023-07-01T10:30:15.666Z,16.54
2023-07-01T10:31:19.996Z,16.51
2023-07-01T10:32:24.414Z,16.50
2023-07-01T10:33:28.840Z,16.52
2023-07-01T10:34:33.284Z,16.58
2023-07-01T10:35:37.759Z,16.62
2023-07-01T10:36:42.090Z,16.69
2023-07-01T10:37:46.564Z,16.68
2023-07-01T10:38:50.952Z,16.70
2023-07-01T10:39:58.350Z,16.67
2023-07-01T10:41:01.979Z,16.65
2023-07-01T10:42:06.342Z,16.64
2023-07-01T10:43:10.705Z,16.65
2023-07-01T10:44:15.077Z,16.66
2023-07-01T10:45:19.476Z,16.70
2023-07-01T10:46:23.866Z,16.71
2023-07-01T10:47:28.451Z,16.68
2023-07-01T10:48:32.806Z,16.64
2023-07-01T10:49:37.139Z,16.58
2023-07-01T10:50:41.566Z,16.56
2023-07-01T10:51:45.965Z,16.53
2023-07-01T10:52:50.348Z,16.53
2023-07-01T10:53:54.822Z,16.57
2023-07-01T10:54:59.143Z,16.62
2023-07-01T10:56:03.508Z,16.67
2023-07-01T10:57:07.925Z,16.69
2023-07-01T10:58:12.278Z,16.76
2023-07-01T10:59:16.763Z,16.76
2023-07-01T11:00:21.205Z,16.81
2023-07-01T11:01:25.717Z,16.82
2023-07-01T11:02:30.006Z,16.82
2023-07-01T11:03:34.858Z,16.83
2023-07-01T11:04:39.004Z,16.86
2023-07-01T11:05:43.313Z,16.86
2023-07-01T11:06:47.713Z,16.93
2023-07-01T11:07:52.066Z,16.97
2023-07-01T11:08:56.470Z,16.98
2023-07-01T11:10:00.851Z,16.95
2023-07-01T11:11:05.277Z,16.89
2023-07-01T11:12:09.673Z,16.88
2023-07-01T11:13:14.083Z,16.86
2023-07-01T11:14:18.429Z,16.86
2023-07-01T11:15:22.802Z,16.84
2023-07-01T11:16:27.291Z,16.85
2023-07-01T11:17:34.688Z,16.84
2023-07-01T11:18:38.110Z,16.85
2023-07-01T11:19:42.556Z,16.95
2023-07-01T11:20:46.982Z,16.94
2023-07-01T11:21:51.427Z,16.94
2023-07-01T11:22:55.837Z,16.96
2023-07-01T11:24:00.201Z,16.99
2023-07-01T11:25:04.598Z,17.05
2023-07-01T11:26:09.095Z,17.05
2023-07-01T11:27:13.509Z,17.03
2023-07-01T11:28:20.947Z,17.11
2023-07-01T11:29:24.494Z,17.21
2023-07-01T11:30:28.959Z,17.20
2023-07-01T11:31:33.410Z,17.17
2023-07-01T11:32:37.799Z,17.17
2023-07-01T11:33:42.264Z,17.18
2023-07-01T11:34:46.572Z,17.17
2023-07-01T11:35:57.080Z,17.24
2023-07-01T11:37:00.176Z,17.25
2023-07-01T11:38:04.561Z,17.29
2023-07-01T11:39:08.974Z,17.31
2023-07-01T11:40:13.285Z,17.36
2023-07-01T11:41:17.694Z,17.41
2023-07-01T11:42:22.163Z,17.40
2023-07-01T11:43:26.573Z,17.41
2023-07-01T11:44:30.926Z,17.50
2023-07-01T11:45:35.395Z,17.54
2023-07-01T11:46:39.918Z,17.50
2023-07-01T11:47:44.337Z,17.56
2023-07-01T11:48:48.790Z,17.57
2023-07-01T11:49:53.211Z,17.63
2023-07-01T11:50:57.704Z,17.60
2023-07-01T11:52:02.003Z,17.59
2023-07-01T11:53:06.456Z,17.56
2023-07-01T11:54:13.296Z,17.58
2023-07-01T11:55:15.166Z,17.49
2023-07-01T11:56:19.591Z,17.58
2023-07-01T11:57:23.984Z,17.53
2023-07-01T11:58:28.436Z,17.58
2023-07-01T11:59:32.694Z,17.54
2023-07-01T12:00:37.080Z,17.51
2023-07-01T12:01:41.700Z,17.42
2023-07-01T12:02:45.933Z,17.46
2023-07-01T12:03:50.250Z,17.53
2023-07-01T12:04:54.736Z,17.57
2023-07-01T12:05:59.141Z,17.57
2023-07-01T12:07:04.575Z,17.59
2023-07-01T12:08:08.018Z,17.65
2023-07-01T12:09:12.311Z,17.63
2023-07-01T12:10:16.653Z,17.59
2023-07-01T12:11:21.113Z,17.60
2023-07-01T12:12:28.495Z,17.60
2023-07-01T12:13:31.867Z,17.63
2023-07-01T12:14:36.338Z,17.67
2023-07-01T12:15:40.751Z,17.71
2023-07-01T12:16:45.081Z,17.76
2023-07-01T12:17:49.528Z,17.80
2023-07-01T12:18:53.841Z,17.90
2023-07-01T12:19:58.211Z,17.91
2023-07-01T12:21:05.619Z,17.91
2023-07-01T12:22:09.078Z,17.94
2023-07-01T12:23:13.461Z,18.02
2023-07-01T12:24:17.967Z,18.02
2023-07-01T12:25:22.279Z,18.03
2023-07-01T12:26:26.714Z,18.07
2023-07-01T12:27:31.048Z,18.07
2023-07-01T12:28:35.410Z,18.06
2023-07-01T12:29:39.761Z,18.14
2023-07-01T12:30:44.237Z,18.20
2023-07-01T12:31:48.689Z,18.20
2023-07-01T12:32:53.003Z,18.17
2023-07-01T12:33:57.403Z,18.16
2023-07-01T12:35:01.754Z,18.20
2023-07-01T12:36:06.222Z,18.20
2023-07-01T12:37:10.602Z,18.21
2023-07-01T12:38:14.910Z,18.16
2023-07-01T12:39:19.340Z,18.08
2023-07-01T12:40:23.695Z,18.00
2023-07-01T12:41:28.222Z,17.97
2023-07-01T12:42:32.578Z,17.97
2023-07-01T12:43:36.930Z,17.95
2023-07-01T12:44:41.287Z,17.93
2023-07-01T12:45:49.026Z,17.92
2023-07-01T12:46:52.133Z,17.90
2023-07-01T12:47:56.541Z,17.91
2023-07-01T12:49:00.917Z,17.93
2023-07-01T12:50:19.276Z,17.93
2023-07-01T12:51:22.558Z,17.91
2023-07-01T12:52:26.848Z,17.90
2023-07-01T12:53:31.273Z,17.87
2023-07-01T12:54:35.671Z,17.90
2023-07-01T12:55:40.001Z,17.91
2023-07-01T12:56:44.381Z,17.90
2023-07-01T12:57:48.904Z,17.90
2023-07-01T12:58:53.267Z,17.89
2023-07-01T12:59:57.614Z,17.89
2023-07-01T13:01:07.025Z,17.92
2023-07-01T13:02:20.534Z,17.99
2023-07-01T13:03:23.883Z,17.98
2023-07-01T13:04:28.494Z,17.96
2023-07-01T13:05:32.686Z,17.95
2023-07-01T13:06:37.124Z,17.95
2023-07-01T13:07:41.401Z,17.95
2023-07-01T13:08:45.834Z,17.95
2023-07-01T13:09:50.354Z,17.94
2023-07-01T13:10:54.658Z,17.95
2023-07-01T13:11:58.945Z,17.96
2023-07-01T13:13:03.322Z,17.97
2023-07-01T13:14:07.684Z,17.98
2023-07-01T13:15:12.097Z,17.97
2023-07-01T13:16:16.461Z,17.96
2023-07-01T13:17:20.942Z,17.96
2023-07-01T13:18:25.311Z,17.95
2023-07-01T13:19:29.693Z,17.94
2023-07-01T13:20:34.040Z,17.92
2023-07-01T13:21:38.489Z,17.91
2023-07-01T13:22:42.836Z,17.90
2023-07-01T13:23:47.246Z,17.89
2023-07-01T13:24:51.632Z,17.88
2023-07-01T13:25:56.050Z,17.88
2023-07-01T13:27:00.523Z,17.88
2023-07-01T13:28:04.939Z,17.88
2023-07-01T13:29:09.287Z,17.89
2023-07-01T13:30:13.604Z,17.88
2023-07-01T13:31:18.127Z,17.87
2023-07-01T13:32:22.468Z,17.86
2023-07-01T13:33:26.752Z,17.86
2023-07-01T13:34:31.148Z,17.87
2023-07-01T13:35:35.537Z,17.87
2023-07-01T13:36:39.862Z,17.87
2023-07-01T13:37:44.196Z,17.88
2023-07-01T13:38:48.576Z,17.88
2023-07-01T13:39:53.114Z,17.89
2023-07-01T13:41:11.409Z,17.89
2023-07-01T13:42:14.805Z,17.90
2023-07-01T13:43:19.147Z,17.91
2023-07-01T13:44:23.521Z,17.91
2023-07-01T13:45:41.847Z,17.93
2023-07-01T13:46:45.338Z,17.93
2023-07-01T13:47:49.768Z,17.92
2023-07-01T13:48:53.874Z,17.92
2023-07-01T13:49:58.222Z,17.92
2023-07-01T13:51:02.597Z,17.91
2023-07-01T13:52:06.923Z,17.92
2023-07-01T13:53:14.395Z,17.91
2023-07-01T13:54:17.996Z,17.91
2023-07-01T13:55:22.294Z,17.92
2023-07-01T13:56:26.656Z,17.92
2023-07-01T13:57:31.110Z,17.92
2023-07-01T13:58:35.410Z,17.91